Time;durP1;ratioP1;P1;durP2;ratioP2;P2;SDS_P1;SDS_P2;PMS_P1;PMS_P2;Temp;Humidity;BMP_temperature;BMP_pressure;BME280_temperature;BME280_humidity;BME280_pressure;Samples;Min_cycle;Max_cycle;Signal;HPM_P1;HPM_P2
2021/05/21 00:00:59;;;;;;;4.30;1.35;;;;;;;;;;5064897;28;20182;-72
2021/05/21 00:03:24;;;;;;;3.63;1.33;;;;;;;;;;5066327;28;20210;-69
2021/05/21 00:05:50;;;;;;;4.03;2.47;;;;;;;;;;5059889;28;20185;-71
2021/05/21 00:08:15;;;;;;;2.97;1.17;;;;;;;;;;5058337;28;20303;-70
2021/05/21 00:10:41;;;;;;;5.10;1.58;;;;;;;;;;5062534;28;20231;-71
2021/05/21 00:13:06;;;;;;;2.85;1.40;;;;;;;;;;5058602;28;20204;-71
2021/05/21 00:15:31;;;;;;;2.42;1.38;;;;;;;;;;5059834;28;20186;-70
2021/05/21 00:17:56;;;;;;;2.45;1.13;;;;;;;;;;5060147;28;20283;-71
2021/05/21 00:20:21;;;;;;;1.85;1.20;;;;;;;;;;5056163;28;20177;-70
2021/05/21 00:22:47;;;;;;;1.45;1.23;;;;;;;;;;5060106;28;20201;-71
2021/05/21 00:25:12;;;;;;;2.05;0.93;;;;;;;;;;5060586;28;20234;-70
2021/05/21 00:27:37;;;;;;;3.63;1.30;;;;;;;;;;5062744;28;20192;-71
2021/05/21 00:30:03;;;;;;;2.40;1.30;;;;;;;;;;5063390;28;20530;-70
2021/05/21 00:32:28;;;;;;;5.57;1.63;;;;;;;;;;5059212;28;20281;-70
2021/05/21 00:34:53;;;;;;;6.47;2.30;;;;;;;;;;5060013;28;20207;-70
2021/05/21 00:37:19;;;;;;;9.57;2.73;;;;;;;;;;5060006;28;20238;-69
2021/05/21 00:39:44;;;;;;;12.23;2.87;;;;;;;;;;5053738;28;20181;-71
2021/05/21 00:42:09;;;;;;;13.33;3.20;;;;;;;;;;5057012;28;20626;-70
2021/05/21 00:44:34;;;;;;;16.07;2.70;;;;;;;;;;5060020;28;20173;-71
2021/05/21 00:47:00;;;;;;;12.43;3.23;;;;;;;;;;5064994;28;20208;-71
2021/05/21 00:49:25;;;;;;;13.27;3.47;;;;;;;;;;5059101;28;20218;-71
2021/05/21 00:51:50;;;;;;;16.63;4.27;;;;;;;;;;5059149;28;20183;-69
2021/05/21 00:54:16;;;;;;;16.70;5.10;;;;;;;;;;5058682;28;20230;-71
2021/05/21 00:56:42;;;;;;;13.70;2.97;;;;;;;;;;5057778;28;20627;-71
2021/05/21 00:59:07;;;;;;;18.63;4.33;;;;;;;;;;5056029;28;20178;-71
2021/05/21 01:01:32;;;;;;;16.43;4.67;;;;;;;;;;5067417;28;20173;-72
2021/05/21 01:03:58;;;;;;;21.53;4.33;;;;;;;;;;5056023;28;20205;-71
2021/05/21 01:06:23;;;;;;;13.17;3.33;;;;;;;;;;5055452;28;20172;-71
2021/05/21 01:08:48;;;;;;;13.13;3.17;;;;;;;;;;5057325;28;20192;-71
2021/05/21 01:11:14;;;;;;;12.63;4.03;;;;;;;;;;5058123;28;20639;-71
2021/05/21 01:13:39;;;;;;;18.23;4.53;;;;;;;;;;5055626;28;20790;-71
2021/05/21 01:16:04;;;;;;;17.13;2.90;;;;;;;;;;5056482;28;20180;-71
2021/05/21 01:18:29;;;;;;;11.73;2.97;;;;;;;;;;5057420;28;20212;-70
2021/05/21 01:20:55;;;;;;;19.27;3.60;;;;;;;;;;5064084;28;20195;-71
2021/05/21 01:23:20;;;;;;;13.63;2.90;;;;;;;;;;5060793;28;20315;-71
2021/05/21 01:25:45;;;;;;;17.50;3.40;;;;;;;;;;5060694;28;20223;-71
2021/05/21 01:28:13;;;;;;;11.80;3.33;;;;;;;;;;5059705;28;20739;-70
2021/05/21 01:30:39;;;;;;;17.47;5.03;;;;;;;;;;5060634;28;20252;-70
2021/05/21 01:33:05;;;;;;;13.70;3.50;;;;;;;;;;5056752;28;20258;-71
2021/05/21 01:35:30;;;;;;;12.87;3.20;;;;;;;;;;5061663;28;20199;-71
2021/05/21 01:37:56;;;;;;;14.40;3.40;;;;;;;;;;5057102;28;20193;-71
2021/05/21 01:40:21;;;;;;;14.87;3.00;;;;;;;;;;5055794;28;20267;-71
2021/05/21 01:42:46;;;;;;;17.67;4.13;;;;;;;;;;5061344;28;20201;-70
2021/05/21 01:45:12;;;;;;;18.13;2.97;;;;;;;;;;5057479;28;20242;-71
2021/05/21 01:47:37;;;;;;;22.30;3.57;;;;;;;;;;5062768;28;20614;-70
2021/05/21 01:50:04;;;;;;;13.07;2.93;;;;;;;;;;5060817;28;20173;-71
2021/05/21 01:52:29;;;;;;;17.03;3.77;;;;;;;;;;5057371;28;20193;-71
2021/05/21 01:54:55;;;;;;;15.53;3.83;;;;;;;;;;5052337;28;20173;-70
2021/05/21 01:57:20;;;;;;;16.77;3.77;;;;;;;;;;5059733;28;20177;-70
2021/05/21 01:59:45;;;;;;;16.97;3.60;;;;;;;;;;5061300;28;20176;-70
2021/05/21 02:02:10;;;;;;;15.67;3.57;;;;;;;;;;5067127;28;20212;-71
2021/05/21 02:04:37;;;;;;;16.97;3.60;;;;;;;;;;5063902;28;20591;-71
2021/05/21 02:07:03;;;;;;;17.63;3.20;;;;;;;;;;5067144;28;20291;-71
2021/05/21 02:09:28;;;;;;;10.90;3.07;;;;;;;;;;5061511;28;20227;-71
2021/05/21 02:11:54;;;;;;;13.60;3.03;;;;;;;;;;5068059;28;20665;-73
2021/05/21 02:14:19;;;;;;;16.90;3.20;;;;;;;;;;5059856;28;20259;-69
2021/05/21 02:16:45;;;;;;;13.60;4.00;;;;;;;;;;5071010;28;20177;-70
2021/05/21 02:19:10;;;;;;;18.67;4.37;;;;;;;;;;5063168;28;20242;-71
2021/05/21 02:21:35;;;;;;;15.87;4.30;;;;;;;;;;5065875;28;20546;-72
2021/05/21 02:24:05;;;;;;;14.27;3.00;;;;;;;;;;5069929;28;20242;-71
2021/05/21 02:26:30;;;;;;;14.53;3.60;;;;;;;;;;5060139;28;20259;-71
2021/05/21 02:28:56;;;;;;;20.53;4.57;;;;;;;;;;5057661;28;20627;-71
2021/05/21 02:31:21;;;;;;;14.60;4.33;;;;;;;;;;5066453;28;20178;-71
2021/05/21 02:33:46;;;;;;;20.27;3.53;;;;;;;;;;5061406;28;20204;-72
2021/05/21 02:36:11;;;;;;;15.27;3.73;;;;;;;;;;5067529;28;20169;-71
2021/05/21 02:38:36;;;;;;;19.97;3.40;;;;;;;;;;5063608;28;20272;-71
2021/05/21 02:41:02;;;;;;;20.90;4.97;;;;;;;;;;5066586;28;20180;-70
2021/05/21 02:43:27;;;;;;;19.23;4.30;;;;;;;;;;5065052;28;20197;-70
2021/05/21 02:45:52;;;;;;;15.47;3.57;;;;;;;;;;5069357;28;20727;-71
2021/05/21 02:48:18;;;;;;;17.47;3.37;;;;;;;;;;5063780;28;20586;-72
2021/05/21 02:50:43;;;;;;;14.27;3.77;;;;;;;;;;5065055;28;20173;-72
2021/05/21 02:53:08;;;;;;;23.17;4.43;;;;;;;;;;5058955;28;20201;-70
2021/05/21 02:55:34;;;;;;;18.27;4.47;;;;;;;;;;5063708;28;20165;-71
2021/05/21 02:58:00;;;;;;;18.80;4.60;;;;;;;;;;5062976;28;20224;-71
2021/05/21 03:00:25;;;;;;;16.43;3.70;;;;;;;;;;5064145;28;20177;-71
2021/05/21 03:02:50;;;;;;;16.30;3.83;;;;;;;;;;5055816;28;20197;-72
2021/05/21 03:05:20;;;;;;;19.07;4.33;;;;;;;;;;5063850;28;20185;-71
2021/05/21 03:07:49;;;;;;;20.57;4.07;;;;;;;;;;5062133;28;20200;-71
2021/05/21 03:10:15;;;;;;;15.03;3.70;;;;;;;;;;5060915;28;20663;-71
2021/05/21 03:12:40;;;;;;;11.07;3.50;;;;;;;;;;5061995;28;20196;-71
2021/05/21 03:15:05;;;;;;;19.50;4.27;;;;;;;;;;5057211;28;20170;-72
2021/05/21 03:17:32;;;;;;;15.37;3.87;;;;;;;;;;5060033;28;20702;-71
2021/05/21 03:19:57;;;;;;;16.97;3.93;;;;;;;;;;5062071;28;20236;-72
2021/05/21 03:22:23;;;;;;;17.97;3.53;;;;;;;;;;5065703;28;20196;-71
2021/05/21 03:24:48;;;;;;;20.97;4.00;;;;;;;;;;5064369;28;20238;-72
2021/05/21 03:27:13;;;;;;;13.50;3.97;;;;;;;;;;5059550;28;20248;-70
2021/05/21 03:29:38;;;;;;;18.17;4.63;;;;;;;;;;5066884;28;20181;-72
2021/05/21 03:32:03;;;;;;;18.90;3.93;;;;;;;;;;5056832;28;20631;-71
2021/05/21 03:34:29;;;;;;;13.40;3.40;;;;;;;;;;5062619;28;20177;-72
2021/05/21 03:36:54;;;;;;;14.87;3.70;;;;;;;;;;5058998;28;20194;-71
2021/05/21 03:39:19;;;;;;;20.53;5.50;;;;;;;;;;5058233;28;20183;-72
2021/05/21 03:41:45;;;;;;;15.47;3.90;;;;;;;;;;5061094;28;20181;-71
2021/05/21 03:44:10;;;;;;;20.57;5.93;;;;;;;;;;5058659;28;20170;-69
2021/05/21 03:46:35;;;;;;;23.27;6.20;;;;;;;;;;5062383;28;20185;-72
2021/05/21 03:49:02;;;;;;;19.97;4.17;;;;;;;;;;5060739;28;20197;-71
2021/05/21 03:51:27;;;;;;;21.07;4.43;;;;;;;;;;5066945;28;20184;-72
2021/05/21 03:53:53;;;;;;;20.17;3.80;;;;;;;;;;5063467;28;20181;-70
2021/05/21 03:56:18;;;;;;;23.13;4.00;;;;;;;;;;5060085;28;20545;-70
2021/05/21 03:58:44;;;;;;;20.90;3.67;;;;;;;;;;5064709;28;20173;-71
2021/05/21 04:01:09;;;;;;;20.17;4.83;;;;;;;;;;5066276;28;20181;-71
2021/05/21 04:03:35;;;;;;;22.47;4.17;;;;;;;;;;5058878;28;20242;-71
2021/05/21 04:06:00;;;;;;;22.17;4.00;;;;;;;;;;5064854;28;20651;-71
2021/05/21 04:08:28;;;;;;;16.27;3.77;;;;;;;;;;5057131;28;20192;-71
2021/05/21 04:10:53;;;;;;;17.43;5.60;;;;;;;;;;5062485;28;20268;-71
2021/05/21 04:13:18;;;;;;;24.10;5.10;;;;;;;;;;5067580;28;20284;-71
2021/05/21 04:15:43;;;;;;;17.17;3.30;;;;;;;;;;5064448;28;20307;-71
2021/05/21 04:18:10;;;;;;;14.70;3.63;;;;;;;;;;5061451;28;20185;-72
2021/05/21 04:20:36;;;;;;;17.57;4.10;;;;;;;;;;5066594;28;20180;-72
2021/05/21 04:23:02;;;;;;;22.23;5.10;;;;;;;;;;5060239;28;20207;-72
2021/05/21 04:25:27;;;;;;;13.63;3.73;;;;;;;;;;5060199;28;20285;-71
2021/05/21 04:27:52;;;;;;;27.93;5.33;;;;;;;;;;5061954;28;20216;-72
2021/05/21 04:30:18;;;;;;;14.53;3.23;;;;;;;;;;5057076;28;20181;-70
2021/05/21 04:32:43;;;;;;;19.43;4.53;;;;;;;;;;5058318;28;20236;-72
2021/05/21 04:35:09;;;;;;;16.93;4.17;;;;;;;;;;5060383;28;20178;-72
2021/05/21 04:37:34;;;;;;;10.00;2.70;;;;;;;;;;5058329;28;20235;-72
2021/05/21 04:39:59;;;;;;;16.13;3.60;;;;;;;;;;5062138;28;20181;-72
2021/05/21 04:42:24;;;;;;;17.13;3.27;;;;;;;;;;5066865;28;20201;-72
2021/05/21 04:44:50;;;;;;;12.13;3.10;;;;;;;;;;5057214;28;20710;-72
2021/05/21 04:47:15;;;;;;;18.63;3.80;;;;;;;;;;5065462;28;20250;-71
2021/05/21 04:49:40;;;;;;;14.67;3.83;;;;;;;;;;5062539;28;20637;-71
2021/05/21 04:52:07;;;;;;;16.87;4.20;;;;;;;;;;5057659;28;20911;-72
2021/05/21 04:54:33;;;;;;;11.00;3.07;;;;;;;;;;5056990;28;20176;-71
2021/05/21 04:56:58;;;;;;;17.63;3.20;;;;;;;;;;5056795;28;20181;-71
2021/05/21 04:59:23;;;;;;;11.60;4.47;;;;;;;;;;5063060;28;20184;-70
2021/05/21 05:01:48;;;;;;;14.57;3.57;;;;;;;;;;5062167;28;20173;-71
2021/05/21 05:04:14;;;;;;;16.37;4.23;;;;;;;;;;5055397;28;20295;-70
2021/05/21 05:06:39;;;;;;;15.27;2.97;;;;;;;;;;5063675;28;20610;-71
2021/05/21 05:09:04;;;;;;;16.43;3.80;;;;;;;;;;5053444;28;20220;-71
2021/05/21 05:11:29;;;;;;;14.70;2.97;;;;;;;;;;5061152;28;20223;-70
2021/05/21 05:13:55;;;;;;;16.27;3.50;;;;;;;;;;5056162;28;20272;-71
2021/05/21 05:16:20;;;;;;;12.17;3.03;;;;;;;;;;5061447;28;20222;-70
2021/05/21 05:18:47;;;;;;;10.77;2.97;;;;;;;;;;5060803;28;20209;-72
2021/05/21 05:21:12;;;;;;;11.63;2.83;;;;;;;;;;5065033;28;20169;-71
2021/05/21 05:23:38;;;;;;;12.87;3.40;;;;;;;;;;5066503;28;20196;-72
2021/05/21 05:26:03;;;;;;;10.33;3.97;;;;;;;;;;5065596;28;20177;-71
2021/05/21 05:28:28;;;;;;;13.97;4.03;;;;;;;;;;5061951;28;20200;-72
2021/05/21 05:30:53;;;;;;;14.07;3.37;;;;;;;;;;5064966;28;20234;-72
2021/05/21 05:33:18;;;;;;;15.33;3.63;;;;;;;;;;5055472;28;20193;-69
2021/05/21 05:35:44;;;;;;;14.83;3.30;;;;;;;;;;5062310;28;20195;-72
2021/05/21 05:38:10;;;;;;;15.97;4.10;;;;;;;;;;5064833;28;20202;-72
2021/05/21 05:40:38;;;;;;;14.30;3.20;;;;;;;;;;5055564;28;20177;-70
2021/05/21 05:43:03;;;;;;;14.93;3.27;;;;;;;;;;5059407;28;20189;-71
2021/05/21 05:45:28;;;;;;;15.10;3.93;;;;;;;;;;5054663;28;20180;-71
2021/05/21 05:47:53;;;;;;;17.77;4.27;;;;;;;;;;5061457;28;20554;-71
2021/05/21 05:50:18;;;;;;;16.50;3.50;;;;;;;;;;5069119;28;20192;-71
2021/05/21 05:52:44;;;;;;;14.23;3.80;;;;;;;;;;5057725;28;20224;-70
2021/05/21 05:55:09;;;;;;;13.37;3.47;;;;;;;;;;5063173;28;20651;-72
2021/05/21 05:57:35;;;;;;;12.13;3.50;;;;;;;;;;5066752;28;20173;-71
2021/05/21 06:00:00;;;;;;;8.60;2.43;;;;;;;;;;5069475;28;20173;-70
2021/05/21 06:02:25;;;;;;;17.17;4.57;;;;;;;;;;5063886;28;20283;-72
2021/05/21 06:04:51;;;;;;;13.43;2.90;;;;;;;;;;5064556;28;20277;-71
2021/05/21 06:07:16;;;;;;;10.53;3.00;;;;;;;;;;5062662;28;20202;-70
2021/05/21 06:09:41;;;;;;;17.20;3.10;;;;;;;;;;5059991;28;20212;-71
2021/05/21 06:12:06;;;;;;;9.37;2.70;;;;;;;;;;5065829;28;20185;-71
2021/05/21 06:14:32;;;;;;;12.30;3.67;;;;;;;;;;5067061;28;20169;-71
2021/05/21 06:16:57;;;;;;;14.40;2.83;;;;;;;;;;5060988;28;20173;-71
2021/05/21 06:19:22;;;;;;;14.40;2.83;;;;;;;;;;5063853;28;20209;-71
2021/05/21 06:21:47;;;;;;;15.57;3.03;;;;;;;;;;5061994;28;20654;-71
2021/05/21 06:24:15;;;;;;;14.87;3.27;;;;;;;;;;5065219;28;20213;-72
2021/05/21 06:26:43;;;;;;;10.90;3.20;;;;;;;;;;5066262;28;20306;-72
2021/05/21 06:29:08;;;;;;;11.93;3.00;;;;;;;;;;5059448;28;20178;-71
2021/05/21 06:31:34;;;;;;;21.17;3.27;;;;;;;;;;5062163;28;20184;-72
2021/05/21 06:33:59;;;;;;;14.83;2.90;;;;;;;;;;5066927;28;20190;-70
2021/05/21 06:36:25;;;;;;;12.57;2.67;;;;;;;;;;5060543;28;20172;-70
2021/05/21 06:38:50;;;;;;;14.05;3.70;;;;;;;;;;5065376;28;20252;-71
2021/05/21 06:41:15;;;;;;;12.60;3.23;;;;;;;;;;5061498;28;20639;-70
2021/05/21 06:43:40;;;;;;;11.43;3.33;;;;;;;;;;5063949;28;20189;-72
2021/05/21 06:46:06;;;;;;;15.80;3.28;;;;;;;;;;5064458;28;20682;-72
2021/05/21 06:48:34;;;;;;;19.73;4.80;;;;;;;;;;5061987;28;20239;-71
2021/05/21 06:51:00;;;;;;;12.43;3.20;;;;;;;;;;5065968;28;20192;-70
2021/05/21 06:53:26;;;;;;;16.15;3.55;;;;;;;;;;5062746;28;20200;-71
2021/05/21 06:55:52;;;;;;;10.07;3.00;;;;;;;;;;5067600;28;20165;-68
2021/05/21 06:58:19;;;;;;;10.88;3.10;;;;;;;;;;5061153;28;20188;-69
2021/05/21 07:00:48;;;;;;;12.80;3.90;;;;;;;;;;5063015;28;20205;-70
2021/05/21 07:03:14;;;;;;;12.52;3.70;;;;;;;;;;5064843;28;20213;-69
2021/05/21 07:05:40;;;;;;;10.98;2.67;;;;;;;;;;5059282;28;20681;-70
2021/05/21 07:08:06;;;;;;;13.73;2.80;;;;;;;;;;5060404;28;20301;-71
2021/05/21 07:10:31;;;;;;;7.35;2.40;;;;;;;;;;5064086;28;22086;-71
2021/05/21 07:13:05;;;;;;;13.52;2.63;;;;;;;;;;5063876;28;20210;-71
2021/05/21 07:15:30;;;;;;;8.93;2.42;;;;;;;;;;5058930;28;20177;-71
2021/05/21 07:17:55;;;;;;;8.57;2.67;;;;;;;;;;5064456;28;20177;-69
2021/05/21 07:20:20;;;;;;;10.27;3.65;;;;;;;;;;5056763;28;20264;-69
2021/05/21 07:22:46;;;;;;;11.15;3.45;;;;;;;;;;5058974;28;20207;-72
2021/05/21 07:25:11;;;;;;;11.05;2.83;;;;;;;;;;5059843;28;20203;-71
2021/05/21 07:27:37;;;;;;;11.80;2.50;;;;;;;;;;5062019;28;20228;-70
2021/05/21 07:30:02;;;;;;;9.63;3.40;;;;;;;;;;5061209;28;20196;-70
2021/05/21 07:32:28;;;;;;;9.20;2.97;;;;;;;;;;5060402;28;20193;-70
2021/05/21 07:34:53;;;;;;;11.23;2.95;;;;;;;;;;5058856;28;20173;-71
2021/05/21 07:37:18;;;;;;;14.13;3.67;;;;;;;;;;5065598;28;20215;-71
2021/05/21 07:39:43;;;;;;;11.07;2.72;;;;;;;;;;5056348;28;20227;-72
2021/05/21 07:42:08;;;;;;;10.48;2.53;;;;;;;;;;5059255;28;20205;-72
2021/05/21 07:44:34;;;;;;;16.88;3.38;;;;;;;;;;5052639;28;20264;-70
2021/05/21 07:46:59;;;;;;;8.38;3.13;;;;;;;;;;5058884;28;20200;-70
2021/05/21 07:49:25;;;;;;;15.18;4.18;;;;;;;;;;5057990;28;20177;-70
2021/05/21 07:51:51;;;;;;;9.93;2.13;;;;;;;;;;5055820;28;20174;-72
2021/05/21 07:54:16;;;;;;;16.45;3.08;;;;;;;;;;5059851;28;20227;-71
2021/05/21 07:56:42;;;;;;;9.02;2.70;;;;;;;;;;5062948;28;20166;-71
2021/05/21 07:59:09;;;;;;;10.98;2.95;;;;;;;;;;5063066;28;20173;-70
2021/05/21 08:01:34;;;;;;;12.00;3.22;;;;;;;;;;5061154;28;20240;-71
2021/05/21 08:04:00;;;;;;;8.02;2.30;;;;;;;;;;5056963;28;20233;-71
2021/05/21 08:06:25;;;;;;;7.88;2.50;;;;;;;;;;5060148;28;20268;-72
2021/05/21 08:08:50;;;;;;;14.52;2.45;;;;;;;;;;5060456;28;20203;-70
2021/05/21 08:11:15;;;;;;;14.02;3.40;;;;;;;;;;5061795;28;20642;-71
2021/05/21 08:13:40;;;;;;;12.75;3.22;;;;;;;;;;5058190;28;20193;-71
2021/05/21 08:16:10;;;;;;;9.95;3.08;;;;;;;;;;5063365;28;20176;-72
2021/05/21 08:18:35;;;;;;;9.23;2.17;;;;;;;;;;5060733;28;20262;-72
2021/05/21 08:21:00;;;;;;;14.93;2.80;;;;;;;;;;5062005;28;20220;-71
2021/05/21 08:23:26;;;;;;;7.63;2.50;;;;;;;;;;5057012;28;20296;-72
2021/05/21 08:25:51;;;;;;;12.15;2.95;;;;;;;;;;5060672;28;20177;-69
2021/05/21 08:28:17;;;;;;;8.55;2.88;;;;;;;;;;5058365;28;20236;-70
2021/05/21 08:30:42;;;;;;;11.45;2.35;;;;;;;;;;5063610;28;20176;-70
2021/05/21 08:33:09;;;;;;;9.65;2.92;;;;;;;;;;5065678;28;20206;-70
2021/05/21 08:35:34;;;;;;;7.82;2.20;;;;;;;;;;5067783;28;20182;-70
2021/05/21 08:38:01;;;;;;;11.05;2.65;;;;;;;;;;5063153;28;20200;-70
2021/05/21 08:40:30;;;;;;;10.10;2.80;;;;;;;;;;5061367;28;20268;-70
2021/05/21 08:42:59;;;;;;;10.13;3.30;;;;;;;;;;5063684;28;20195;-70
2021/05/21 08:45:25;;;;;;;10.05;2.75;;;;;;;;;;5058098;28;20181;-70
2021/05/21 08:47:51;;;;;;;10.35;2.63;;;;;;;;;;5062616;28;20184;-70
2021/05/21 08:50:16;;;;;;;7.55;2.70;;;;;;;;;;5057187;28;20817;-71
2021/05/21 08:52:42;;;;;;;11.85;2.60;;;;;;;;;;5054945;28;20658;-70
2021/05/21 08:55:08;;;;;;;10.23;2.95;;;;;;;;;;5060584;28;20165;-71
2021/05/21 08:57:33;;;;;;;8.23;2.42;;;;;;;;;;5062942;28;20193;-70
2021/05/21 08:59:58;;;;;;;13.98;2.78;;;;;;;;;;5058283;28;20180;-71
2021/05/21 09:02:27;;;;;;;9.07;2.88;;;;;;;;;;5061166;28;20634;-71
2021/05/21 09:04:58;;;;;;;13.48;2.70;;;;;;;;;;5061700;28;20170;-71
2021/05/21 09:07:27;;;;;;;8.93;2.28;;;;;;;;;;5065168;28;20609;-72
2021/05/21 09:09:53;;;;;;;12.48;2.67;;;;;;;;;;5053355;28;20257;-72
2021/05/21 09:12:19;;;;;;;13.20;2.92;;;;;;;;;;5058538;28;20682;-70
2021/05/21 09:15:03;;;;;;;8.07;2.45;;;;;;;;;;5065034;28;20226;-69
2021/05/21 09:17:28;;;;;;;5.93;2.00;;;;;;;;;;5060745;28;20189;-69
2021/05/21 09:19:54;;;;;;;10.55;3.53;;;;;;;;;;5055336;28;21097;-72
2021/05/21 09:22:20;;;;;;;9.43;2.53;;;;;;;;;;5053529;28;20265;-69
2021/05/21 09:24:47;;;;;;;6.68;2.63;;;;;;;;;;5058903;28;20421;-73
2021/05/21 09:27:14;;;;;;;16.30;3.15;;;;;;;;;;5060078;28;20255;-70
2021/05/21 09:29:46;;;;;;;14.00;2.30;;;;;;;;;;5061351;28;20204;-72
2021/05/21 09:32:30;;;;;;;8.45;2.60;;;;;;;;;;5053485;28;20196;-72
2021/05/21 09:35:05;;;;;;;9.60;2.60;;;;;;;;;;5059600;28;20271;-72
2021/05/21 09:37:31;;;;;;;9.18;2.58;;;;;;;;;;5056309;28;20191;-71
2021/05/21 09:40:07;;;;;;;12.18;3.08;;;;;;;;;;5065615;28;20199;-71
2021/05/21 09:42:52;;;;;;;10.93;2.55;;;;;;;;;;5060824;28;20216;-71
2021/05/21 09:45:36;;;;;;;11.35;2.83;;;;;;;;;;5056475;28;20324;-73
2021/05/21 09:48:02;;;;;;;10.85;2.63;;;;;;;;;;5061460;28;20321;-71
2021/05/21 09:50:33;;;;;;;10.65;2.55;;;;;;;;;;5060802;28;20253;-72
2021/05/21 09:52:59;;;;;;;11.35;2.15;;;;;;;;;;5060530;28;20202;-71
2021/05/21 09:55:29;;;;;;;12.13;2.70;;;;;;;;;;5054404;28;20177;-71
2021/05/21 09:57:54;;;;;;;12.63;2.42;;;;;;;;;;5057721;28;20169;-72
2021/05/21 10:00:20;;;;;;;9.50;2.97;;;;;;;;;;5054104;28;20676;-71
2021/05/21 10:02:45;;;;;;;7.72;3.05;;;;;;;;;;5062198;28;20203;-71
2021/05/21 10:05:10;;;;;;;12.55;3.03;;;;;;;;;;5056486;28;20647;-70
2021/05/21 10:07:35;;;;;;;9.80;2.55;;;;;;;;;;5062706;28;20623;-70
2021/05/21 10:10:01;;;;;;;8.48;2.40;;;;;;;;;;5057377;28;20201;-71
2021/05/21 10:12:26;;;;;;;9.02;2.95;;;;;;;;;;5058586;28;20605;-71
2021/05/21 10:14:52;;;;;;;14.52;3.83;;;;;;;;;;5058441;28;20598;-72
2021/05/21 10:17:22;;;;;;;8.15;2.33;;;;;;;;;;5067758;28;20207;-71
2021/05/21 10:19:48;;;;;;;5.55;1.95;;;;;;;;;;5059073;28;20267;-71
2021/05/21 10:22:15;;;;;;;10.35;2.08;;;;;;;;;;5056536;28;20297;-71
2021/05/21 10:24:42;;;;;;;7.40;2.00;;;;;;;;;;5057623;28;20178;-71
2021/05/21 10:27:12;;;;;;;8.88;1.73;;;;;;;;;;5057332;28;20192;-71
2021/05/21 10:29:39;;;;;;;7.00;2.00;;;;;;;;;;5051999;28;20177;-71
2021/05/21 10:32:11;;;;;;;7.20;1.58;;;;;;;;;;5060079;28;20608;-71
2021/05/21 10:34:43;;;;;;;13.65;2.60;;;;;;;;;;5056315;28;20169;-71
2021/05/21 10:37:18;;;;;;;8.93;2.53;;;;;;;;;;5057046;28;20283;-71
2021/05/21 10:40:02;;;;;;;7.22;2.50;;;;;;;;;;5058538;28;20543;-71
2021/05/21 10:42:28;;;;;;;9.70;3.45;;;;;;;;;;5062714;28;20204;-68
2021/05/21 10:44:54;;;;;;;11.98;3.40;;;;;;;;;;5057509;28;20177;-73
2021/05/21 10:47:23;;;;;;;10.98;3.22;;;;;;;;;;5065862;28;20189;-73
2021/05/21 10:49:51;;;;;;;10.63;2.50;;;;;;;;;;5059867;28;20165;-72
2021/05/21 10:52:17;;;;;;;9.10;2.83;;;;;;;;;;5067368;28;20287;-72
2021/05/21 10:54:45;;;;;;;8.27;2.50;;;;;;;;;;5055995;28;20256;-71
2021/05/21 10:57:11;;;;;;;15.55;3.20;;;;;;;;;;5060074;28;20653;-70
2021/05/21 10:59:41;;;;;;;7.88;2.38;;;;;;;;;;5064672;28;20181;-71
2021/05/21 11:02:07;;;;;;;13.77;2.88;;;;;;;;;;5066945;28;20185;-70
2021/05/21 11:04:32;;;;;;;9.65;2.90;;;;;;;;;;5060347;28;20248;-71
2021/05/21 11:06:57;;;;;;;9.05;2.17;;;;;;;;;;5066512;28;20600;-72
2021/05/21 11:09:27;;;;;;;7.25;2.15;;;;;;;;;;5056999;28;20173;-71
2021/05/21 11:11:58;;;;;;;6.65;1.30;;;;;;;;;;5066832;28;20226;-71
2021/05/21 11:14:26;;;;;;;5.35;1.70;;;;;;;;;;5061577;28;20189;-71
2021/05/21 11:16:51;;;;;;;7.30;1.80;;;;;;;;;;5065189;28;20173;-71
2021/05/21 11:19:20;;;;;;;8.07;1.70;;;;;;;;;;5060979;28;20663;-72
2021/05/21 11:21:46;;;;;;;4.85;1.85;;;;;;;;;;5057491;28;20166;-70
2021/05/21 11:24:11;;;;;;;4.10;1.52;;;;;;;;;;5059087;28;20231;-70
2021/05/21 11:26:38;;;;;;;10.48;1.98;;;;;;;;;;5057783;28;20166;-70
2021/05/21 11:29:07;;;;;;;6.35;1.63;;;;;;;;;;5062756;28;20197;-72
2021/05/21 11:31:33;;;;;;;7.65;1.50;;;;;;;;;;5057273;28;20169;-71
2021/05/21 11:33:59;;;;;;;5.60;1.70;;;;;;;;;;5060194;28;20193;-71
2021/05/21 11:36:26;;;;;;;5.38;1.73;;;;;;;;;;5062605;28;20177;-70
2021/05/21 11:38:52;;;;;;;10.55;2.25;;;;;;;;;;5060057;28;20674;-71
2021/05/21 11:41:18;;;;;;;12.30;2.90;;;;;;;;;;5065616;28;20184;-71
2021/05/21 11:43:44;;;;;;;12.10;2.17;;;;;;;;;;5054831;28;20223;-71
2021/05/21 11:46:17;;;;;;;10.23;2.33;;;;;;;;;;5057839;28;20254;-70
2021/05/21 11:48:43;;;;;;;5.95;2.35;;;;;;;;;;5058408;28;20197;-70
2021/05/21 11:51:19;;;;;;;7.53;2.15;;;;;;;;;;5064268;28;20551;-71
2021/05/21 11:53:55;;;;;;;8.15;2.53;;;;;;;;;;5064256;28;20196;-70
2021/05/21 11:56:34;;;;;;;9.80;2.63;;;;;;;;;;5056359;28;20654;-71
2021/05/21 11:59:00;;;;;;;8.95;3.15;;;;;;;;;;5059003;28;20250;-70
2021/05/21 12:01:25;;;;;;;5.53;1.85;;;;;;;;;;5056628;28;20706;-70
2021/05/21 12:03:50;;;;;;;11.18;3.35;;;;;;;;;;5059086;28;20682;-70
2021/05/21 12:06:15;;;;;;;11.00;2.85;;;;;;;;;;5067701;28;20187;-69
2021/05/21 12:08:47;;;;;;;7.80;2.35;;;;;;;;;;5064335;28;20204;-70
2021/05/21 12:11:13;;;;;;;8.63;2.67;;;;;;;;;;5065581;28;20607;-71
2021/05/21 12:13:39;;;;;;;7.22;1.90;;;;;;;;;;5065058;28;20280;-71
2021/05/21 12:16:11;;;;;;;7.43;2.25;;;;;;;;;;5058619;28;20182;-71
2021/05/21 12:18:37;;;;;;;6.95;2.60;;;;;;;;;;5059178;28;20271;-70
2021/05/21 12:21:02;;;;;;;9.18;2.38;;;;;;;;;;5059514;28;20178;-71
2021/05/21 12:23:38;;;;;;;7.03;1.90;;;;;;;;;;5064516;28;20197;-70
2021/05/21 12:26:04;;;;;;;4.22;2.00;;;;;;;;;;5064277;28;20187;-71
2021/05/21 12:28:30;;;;;;;8.73;2.45;;;;;;;;;;5063036;28;20204;-72
2021/05/21 12:30:57;;;;;;;6.43;2.33;;;;;;;;;;5059682;28;20176;-70
2021/05/21 12:33:22;;;;;;;9.70;2.92;;;;;;;;;;5062545;28;20675;-69
2021/05/21 12:35:48;;;;;;;6.85;2.55;;;;;;;;;;5063541;28;20191;-71
2021/05/21 12:38:13;;;;;;;7.47;2.20;;;;;;;;;;5058122;28;20682;-71
2021/05/21 12:41:07;;;;;;;15.75;3.88;;;;;;;;;;5055230;28;20554;-70
2021/05/21 12:43:33;;;;;;;6.53;1.70;;;;;;;;;;5059691;28;20220;-70
2021/05/21 12:46:07;;;;;;;3.75;1.23;;;;;;;;;;5056907;28;20188;-71
2021/05/21 12:48:32;;;;;;;5.10;1.35;;;;;;;;;;5062122;28;20262;-72
2021/05/21 12:51:08;;;;;;;4.82;1.80;;;;;;;;;;5065297;28;20177;-71
2021/05/21 12:53:33;;;;;;;10.32;3.15;;;;;;;;;;5056933;28;20208;-72
2021/05/21 12:55:58;;;;;;;5.40;1.47;;;;;;;;;;5060120;28;20503;-70
2021/05/21 12:58:23;;;;;;;7.00;1.75;;;;;;;;;;5062483;28;20422;-71
2021/05/21 13:00:50;;;;;;;9.67;2.70;;;;;;;;;;5055154;28;20177;-72
2021/05/21 13:03:15;;;;;;;8.45;2.75;;;;;;;;;;5061576;28;20458;-71
2021/05/21 13:05:40;;;;;;;9.13;2.47;;;;;;;;;;5063289;28;20508;-70
2021/05/21 13:08:05;;;;;;;7.20;2.63;;;;;;;;;;5058631;28;20219;-71
2021/05/21 13:10:38;;;;;;;7.85;1.85;;;;;;;;;;5067255;28;20173;-71
2021/05/21 13:13:04;;;;;;;8.23;2.47;;;;;;;;;;5066079;28;20192;-71
2021/05/21 13:15:30;;;;;;;9.75;2.28;;;;;;;;;;5063688;28;20169;-70
2021/05/21 13:17:56;;;;;;;12.23;2.58;;;;;;;;;;5067531;28;20313;-70
2021/05/21 13:20:22;;;;;;;7.50;2.10;;;;;;;;;;5059804;28;20177;-70
2021/05/21 13:22:52;;;;;;;6.32;1.73;;;;;;;;;;5061031;28;20712;-70
2021/05/21 13:25:18;;;;;;;7.93;1.90;;;;;;;;;;5057643;28;20260;-71
2021/05/21 13:27:47;;;;;;;5.80;1.67;;;;;;;;;;5061777;28;20565;-71
2021/05/21 13:30:12;;;;;;;10.75;2.80;;;;;;;;;;5059272;28;20174;-70
2021/05/21 13:32:39;;;;;;;5.40;1.55;;;;;;;;;;5061274;28;20520;-70
2021/05/21 13:35:04;;;;;;;8.27;1.77;;;;;;;;;;5059817;28;20731;-69
2021/05/21 13:37:30;;;;;;;8.40;1.45;;;;;;;;;;5065529;28;20219;-71
2021/05/21 13:39:55;;;;;;;8.57;2.53;;;;;;;;;;5063745;28;20177;-70
2021/05/21 13:42:21;;;;;;;8.85;2.08;;;;;;;;;;5063017;28;20254;-69
2021/05/21 13:44:46;;;;;;;11.05;1.90;;;;;;;;;;5063885;28;20250;-70
2021/05/21 13:47:12;;;;;;;7.30;2.05;;;;;;;;;;5058169;28;20173;-70
2021/05/21 13:49:37;;;;;;;6.40;2.30;;;;;;;;;;5057154;28;20181;-70
2021/05/21 13:52:02;;;;;;;28.20;2.90;;;;;;;;;;5064789;28;20192;-70
2021/05/21 13:54:28;;;;;;;8.13;2.17;;;;;;;;;;5053456;28;20427;-72
2021/05/21 13:56:53;;;;;;;8.38;2.20;;;;;;;;;;5061449;28;20196;-71
2021/05/21 13:59:19;;;;;;;12.20;3.00;;;;;;;;;;5056121;28;20178;-73
2021/05/21 14:01:44;;;;;;;11.60;2.03;;;;;;;;;;5062489;28;20169;-70
2021/05/21 14:04:09;;;;;;;8.35;2.17;;;;;;;;;;5064041;28;20184;-70
2021/05/21 14:06:35;;;;;;;3.90;1.57;;;;;;;;;;5067044;28;20643;-70
2021/05/21 14:09:00;;;;;;;6.72;1.95;;;;;;;;;;5062828;28;20442;-71
2021/05/21 14:11:26;;;;;;;7.90;1.75;;;;;;;;;;5066510;28;20187;-71
2021/05/21 14:13:51;;;;;;;10.82;2.13;;;;;;;;;;5061193;28;20197;-70
2021/05/21 14:16:16;;;;;;;11.30;2.72;;;;;;;;;;5072908;28;20191;-70
2021/05/21 14:18:41;;;;;;;10.50;2.28;;;;;;;;;;5061619;28;20173;-71
2021/05/21 14:21:07;;;;;;;8.85;2.42;;;;;;;;;;5062395;28;20682;-71
2021/05/21 14:23:33;;;;;;;10.10;2.20;;;;;;;;;;5061609;28;20204;-70
2021/05/21 14:25:58;;;;;;;11.40;1.98;;;;;;;;;;5059626;28;22321;-71
2021/05/21 14:28:23;;;;;;;8.25;1.40;;;;;;;;;;5065025;28;20211;-71